Weather observations for the past three days for
San Diego, North Island, Naval Air Station
| Date | Time (pdt) | Wind (kph) | Vis. (km) | Weather | Sky Cond. | Temperature (ºC) | Relative Humidity | Wind Chill (°C) | Heat Index (°C) | Pressure | Precipitation (cm) | ||||||
|---|---|---|---|---|---|---|---|---|---|---|---|---|---|---|---|---|---|
| Air | Dwpt | 6 hour | altimeter (cm) | sea level (mb) | 1 hr | 3 hr | 6 hr | ||||||||||
| Max. | Min. | ||||||||||||||||
| 06 | 22:52 | NW 7 | 16.09 | Mostly Cloudy | BKN014 | 17.2 | 13.9 | 19.4 | 16.7 | 81% | 76.33 | 1017.4 | |||||
| 06 | 21:52 | NW 13 | 16.09 | Partly Cloudy | SCT014 | 17.2 | 13.9 | 81% | 76.33 | 1017.4 | |||||||
| 06 | 19:52 | NW 15 | 16.09 | A Few Clouds | FEW014 | 17.8 | 13.9 | 78% | 76.25 | 1016.6 | |||||||
| 06 | 18:52 | NW 20 | 16.09 | A Few Clouds | FEW014 | 18.3 | 13.9 | 76% | 76.23 | 1016.3 | |||||||
| 06 | 17:52 | NW 20 | 16.09 | A Few Clouds | FEW030 | 18.9 | 13.3 | 70% | 76.23 | 1016.2 | |||||||
| 06 | 16:52 | NW 22 | 16.09 | A Few Clouds | FEW030 | 18.9 | 13.3 | 20.6 | 18.9 | 70% | 76.23 | 1016.0 | |||||
| 06 | 15:52 | NW 24 | 16.09 | A Few Clouds | FEW030 | 19.4 | 12.8 | 66% | 76.25 | 1016.4 | |||||||
| 06 | 14:52 | NW 19 | 16.09 | A Few Clouds | FEW030 | 19.4 | 12.2 | 63% | 76.28 | 1016.8 | |||||||
| 06 | 13:52 | W 22 | 16.09 | A Few Clouds | FEW030 | 19.4 | 12.2 | 63% | 76.3 | 1017.1 | |||||||
| 06 | 12:52 | W 24 | 16.09 | A Few Clouds | FEW030 | 19.4 | 11.7 | 61% | 76.33 | 1017.5 | |||||||
| 06 | 11:52 | W 20 | 16.09 | A Few Clouds | FEW030 | 20 | 11.7 | 59% | 76.35 | 1017.8 | |||||||
| 06 | 10:52 | W 19 | 16.09 | A Few Clouds | FEW035 | 18.9 | 11.1 | 19.4 | 13.3 | 61% | 76.38 | 1018.3 | |||||
| 06 | 09:52 | NW 11 | 16.09 | Partly Cloudy | FEW025 SCT035 | 18.3 | 11.1 | 63% | 76.4 | 1018.4 | |||||||
| 06 | 08:52 | S 9 | 16.09 | Partly Cloudy | FEW025 SCT035 | 16.1 | 10 | 67% | 76.38 | 1018.3 | |||||||
| 06 | 07:52 | E 9 | 16.09 | Partly Cloudy | FEW030 SCT035 | 16.7 | 9.4 | 62% | 76.38 | 1018.3 | |||||||
| 06 | 06:52 | E 9 | 16.09 | Partly Cloudy | FEW026 SCT035 | 14.4 | 10 | 75% | 76.38 | 1018.1 | |||||||
| 06 | 05:52 | E 9 | 16.09 | Mostly Cloudy | SCT026 BKN035 | 13.9 | 10 | 78% | 76.33 | 1017.5 | |||||||
| 06 | 04:52 | E 7 | 16.09 | Mostly Cloudy | SCT026 BKN038 BKN250 | 13.9 | 11.1 | 16.1 | 13.3 | 83% | 76.3 | 1017.3 | |||||
| 06 | 03:52 | E 6 | 16.09 | Mostly Cloudy | SCT026 BKN036 BKN250 | 14.4 | 10.6 | 78% | 76.3 | 1017.3 | |||||||
| 06 | 02:52 | E 6 | 16.09 | Mostly Cloudy | SCT028 BKN043 BKN250 | 14.4 | 11.1 | 81% | 76.28 | 1017.0 | |||||||
| 06 | 01:52 | Calm | 16.09 | Mostly Cloudy | SCT028 BKN041 BKN250 | 15 | 11.1 | 78% | 76.33 | 1017.4 | |||||||
| 06 | 00:52 | Calm | 12.87 | Partly Cloudy | FEW032 FEW049 SCT250 | 13.3 | 10.6 | 84% | 76.35 | 1017.9 | |||||||
| 05 | 23:52 | Calm | 16.09 | Partly Cloudy | FEW032 FEW049 SCT250 | 15 | 10 | 72% | 76.35 | 1017.7 | |||||||
| 05 | 22:52 | NW 7 | 16.09 | Partly Cloudy | FEW032 SCT049 SCT250 | 16.1 | 9.4 | 18.9 | 15.6 | 65% | 76.33 | 1017.5 | |||||
| 05 | 21:52 | NW 11 | 16.09 | Mostly Cloudy | FEW032 SCT049 BKN250 | 16.1 | 9.4 | 65% | 76.3 | 1017.3 | |||||||
| 05 | 20:52 | NW 13 | 16.09 | Mostly Cloudy | SCT032 BKN041 BKN250 | 16.7 | 9.4 | 62% | 76.25 | 1016.7 | |||||||
| 05 | 19:52 | NW 15 | 16.09 | Mostly Cloudy | SCT029 BKN065 BKN250 | 16.7 | 9.4 | 62% | 76.2 | 1015.8 | |||||||
| 05 | 18:52 | W 17 | 16.09 | Mostly Cloudy | SCT030 BKN070 BKN240 | 17.2 | 10 | 63% | 76.15 | 1015.2 | |||||||
| 05 | 17:52 | NW 19 | 16.09 | Mostly Cloudy | SCT032 BKN070 BKN230 | 17.8 | 8.9 | 56% | 76.15 | 1015.0 | |||||||
| 05 | 16:52 | W 17 | 16.09 | Partly Cloudy | FEW030 SCT065 SCT240 | 18.3 | 8.9 | 19.4 | 17.8 | 54% | 76.12 | 1014.9 | |||||
| 05 | 15:52 | SW 13 | 16.09 | Partly Cloudy | FEW032 SCT060 SCT250 | 18.9 | 9.4 | 54% | 76.15 | 1015.1 | |||||||
| 05 | 14:52 | W 15 | 16.09 | Partly Cloudy | SCT034 SCT065 | 18.9 | 9.4 | 54% | 76.17 | 1015.4 | |||||||
| 05 | 13:52 | W 20 | 16.09 | Partly Cloudy | SCT034 SCT065 | 18.9 | 9.4 | 54% | 76.2 | 1015.9 | |||||||
| 05 | 12:52 | NW 20 G 35 | 16.09 | Partly Cloudy | SCT034 SCT065 | 18.9 | 10 | 56% | 76.23 | 1016.1 | |||||||
| 05 | 11:52 | NW 19 | 16.09 | Mostly Cloudy | SCT034 SCT065 BKN250 | 18.3 | 10 | 59% | 76.23 | 1016.2 | |||||||
| 05 | 10:52 | NW 22 | 16.09 | Mostly Cloudy | FEW031 SCT048 BKN075 BKN250 | 18.3 | 10.6 | 18.3 | 13.3 | 61% | 76.2 | 1015.9 | 0.18 | ||||
| 05 | 09:52 | W 19 | 16.09 | Mostly Cloudy | FEW025 SCT033 BKN060 | 17.2 | 10.6 | 65% | 76.17 | 1015.5 | |||||||
| 05 | 08:52 | W 11 | 16.09 | Mostly Cloudy | SCT020 BKN045 BKN065 BKN200 | 16.1 | 11.7 | 75% | 76.12 | 1014.9 | |||||||
| 05 | 07:52 | NW 13 | 16.09 | Mostly Cloudy | FEW020 BKN043 BKN065 | 14.4 | 11.7 | 84% | 76.12 | 1014.8 | 0.03 | 0.18 | |||||
| 05 | 06:52 | NW 11 | 6.44 | Light Rain Fog/Mist | SCT025 BKN034 OVC044 | 13.3 | 11.7 | 90% | 76.1 | 1014.4 | 0.15 | ||||||
| 05 | 05:52 | NW 15 | 16.09 | Mostly Cloudy | SCT027 BKN041 BKN075 BKN230 | 15 | 12.2 | 83% | 76.05 | 1013.7 | |||||||
| 05 | 04:52 | W 13 | 16.09 | Mostly Cloudy | SCT027 BKN041 BKN075 BKN230 | 14.4 | 12.2 | 16.1 | 13.3 | 87% | 76.02 | 1013.5 | 0.08 | 0.25 | |||
| 05 | 03:52 | Calm | 16.09 | Mostly Cloudy | SCT032 BKN043 BKN085 BKN230 | 15 | 12.8 | 87% | 76.02 | 1013.5 | |||||||
| 05 | 02:52 | W 6 | 16.09 | Mostly Cloudy | SCT030 BKN043 BKN085 BKN230 | 14.4 | 12.8 | 90% | 76.05 | 1013.7 | |||||||
| 05 | 01:52 | SW 6 | 16.09 | Mostly Cloudy | FEW008 SCT022 BKN039 | 14.4 | 12.8 | 90% | 76.07 | 1014.2 | 0.03 | 0.18 | |||||
| 05 | 00:52 | S 17 | 3.22 | Rain Fog/Mist | SCT011 BKN018 BKN039 | 13.3 | 12.2 | 93% | 76.12 | 1014.7 | 0.15 | ||||||
| 04 | 23:52 | W 11 | 16.09 | Mostly Cloudy | SCT022 SCT050 BKN080 BKN230 | 16.1 | 12.8 | 81% | 76.12 | 1014.7 | |||||||
| 04 | 22:52 | W 17 | 16.09 | Mostly Cloudy | SCT022 BKN060 BKN080 BKN230 | 16.1 | 13.3 | 18.9 | 16.1 | 84% | 76.15 | 1015.0 | |||||
| 04 | 21:52 | SW 6 | 16.09 | Mostly Cloudy | FEW028 SCT065 BKN080 BKN230 | 16.7 | 11.1 | 70% | 76.17 | 1015.5 | |||||||
| 04 | 20:52 | W 7 | 16.09 | Mostly Cloudy | FEW028 BKN080 BKN230 | 16.7 | 10.6 | 67% | 76.15 | 1015.3 | |||||||
| 04 | 19:52 | SW 11 | 16.09 | Mostly Cloudy | FEW028 BKN075 BKN220 | 17.2 | 10 | 63% | 76.12 | 1014.9 | |||||||
| 04 | 18:52 | W 13 | 16.09 | Mostly Cloudy | FEW028 SCT065 BKN230 | 17.8 | 10 | 60% | 76.12 | 1014.9 | |||||||
| 04 | 17:52 | W 17 | 16.09 | Mostly Cloudy | FEW027 SCT060 BKN240 | 18.3 | 10.6 | 61% | 76.15 | 1015.1 | |||||||
| 04 | 16:52 | W 20 | 16.09 | Mostly Cloudy | FEW026 SCT055 BKN250 | 19.4 | 11.1 | 20 | 18.3 | 59% | 76.17 | 1015.4 | |||||
| 04 | 15:52 | SW 15 | 16.09 | Mostly Cloudy | FEW026 SCT055 BKN250 | 18.9 | 10.6 | 59% | 76.17 | 1015.5 | |||||||
| 04 | 14:52 | W 13 | 16.09 | Mostly Cloudy | SCT025 BKN055 BKN250 | 19.4 | 10 | 55% | 76.23 | 1016.0 | |||||||
| 04 | 13:52 | W 22 G 35 | 16.09 | Mostly Cloudy | FEW027 BKN055 BKN250 | 18.9 | 10.6 | 59% | 76.23 | 1016.1 | |||||||
| 04 | 12:52 | W 17 | 16.09 | Mostly Cloudy | SCT027 SCT055 BKN250 | 18.9 | 10.6 | 59% | 76.23 | 1016.2 | |||||||
| 04 | 11:52 | W 19 | 16.09 | Mostly Cloudy | SCT030 SCT055 BKN250 | 18.3 | 11.1 | 63% | 76.25 | 1016.6 | |||||||
| 04 | 10:52 | W 17 | 16.09 | Mostly Cloudy | SCT030 BKN055 BKN250 | 18.3 | 10 | 18.9 | 15.6 | 59% | 76.25 | 1016.7 | |||||
| 04 | 08:52 | NW 13 | 16.09 | Mostly Cloudy | SCT030 BKN055 BKN250 | 17.2 | 10 | 63% | 76.23 | 1016.0 | |||||||
| 04 | 07:52 | NW 13 | 16.09 | Mostly Cloudy | SCT030 BKN055 BKN250 | 17.2 | 9.4 | 60% | 76.17 | 1015.5 | |||||||
| 04 | 06:52 | W 7 | 16.09 | Mostly Cloudy | SCT030 SCT050 BKN250 | 16.1 | 10 | 67% | 76.15 | 1015.3 | |||||||
| 04 | 05:52 | W 11 | 16.09 | Partly Cloudy | FEW025 SCT050 SCT250 | 15.6 | 10 | 70% | 76.15 | 1015.0 | |||||||
| 04 | 03:52 | W 17 | 16.09 | Mostly Cloudy | BKN055 | 16.1 | 10 | 67% | 76.12 | 1014.9 | |||||||
| 04 | 02:52 | NW 17 | 16.09 | Overcast | BKN047 OVC055 | 16.7 | 9.4 | 62% | 76.12 | 1014.8 | |||||||
| 04 | 01:52 | NW 24 | 16.09 | Mostly Cloudy | FEW027 SCT035 BKN043 | 16.7 | 10.6 | 67% | 76.15 | 1015.0 | |||||||
| 03 | 23:52 | W 20 | 16.09 | Mostly Cloudy | SCT025 SCT032 BKN060 | 16.7 | 11.1 | 70% | 76.2 | 1015.8 | |||||||
| Date | Time (pdt) | Wind (kph) | Vis. (km) | Weather | Sky Cond. | Air | Dwpt | Max. | Min. | Relative Humidity | Wind Chill (°C) | Heat Index (°C) | altimeter (cm) | sea level (mb) | 1 hr | 3 hr | 6 hr |
| 6 hour | |||||||||||||||||
| Temperature (ºC) | Pressure | Precipitation (cm) | |||||||||||||||